Time;durP1;ratioP1;P1;durP2;ratioP2;P2;SDS_P1;SDS_P2;PMS_P1;PMS_P2;Temp;Humidity;BMP_temperature;BMP_pressure;BME280_temperature;BME280_humidity;BME280_pressure;Samples;Min_cycle;Max_cycle;Signal;HPM_P1;HPM_P2
2021/12/11 00:01:07;;;;;;;48.43;22.53;;;1.90;99.90;;;;;;5092590;28;20415;-84
2021/12/11 00:03:39;;;;;;;45.00;22.50;;;1.90;99.90;;;;;;5093463;28;20475;-83
2021/12/11 00:06:14;;;;;;;47.60;21.50;;;2.00;99.90;;;;;;5095600;28;20410;-83
2021/12/11 00:08:42;;;;;;;46.33;21.03;;;1.90;99.90;;;;;;5095190;28;20845;-84
2021/12/11 00:11:12;;;;;;;42.90;19.70;;;1.90;99.90;;;;;;5095417;28;20483;-84
2021/12/11 00:13:40;;;;;;;45.30;20.80;;;1.90;99.90;;;;;;5095407;28;20397;-84
2021/12/11 00:16:10;;;;;;;44.93;21.50;;;2.00;99.90;;;;;;5093127;28;20479;-83
2021/12/11 00:18:36;;;;;;;48.37;23.20;;;2.00;99.90;;;;;;5095417;28;20398;-84
2021/12/11 00:21:08;;;;;;;45.67;21.93;;;2.00;99.90;;;;;;5095340;28;20410;-84
2021/12/11 00:23:36;;;;;;;56.90;23.40;;;2.00;99.90;;;;;;5091409;28;20464;-84
2021/12/11 00:26:04;;;;;;;46.87;21.60;;;2.00;99.90;;;;;;5095225;28;20406;-84
2021/12/11 00:28:30;;;;;;;50.10;22.20;;;2.00;99.90;;;;;;5093917;28;20446;-84
2021/12/11 00:30:57;;;;;;;39.20;19.40;;;2.00;99.90;;;;;;5095107;28;20512;-83
2021/12/11 00:33:31;;;;;;;51.80;23.90;;;2.00;99.90;;;;;;5095161;28;20170;-85
2021/12/11 00:35:57;;;;;;;56.47;21.33;;;2.00;99.90;;;;;;5100549;28;20442;-85
2021/12/11 00:38:32;;;;;;;50.93;22.50;;;2.00;99.90;;;;;;5094542;28;20529;-85
2021/12/11 00:40:59;;;;;;;49.57;23.07;;;2.00;99.90;;;;;;5091918;28;20168;-84
2021/12/11 00:43:29;;;;;;;42.20;20.43;;;2.00;99.90;;;;;;5094975;28;20406;-85
2021/12/11 00:45:57;;;;;;;50.93;22.67;;;2.10;99.90;;;;;;5092550;28;20482;-85
2021/12/11 00:48:26;;;;;;;61.23;26.10;;;2.00;99.90;;;;;;5094919;28;20402;-84
2021/12/11 00:51:06;;;;;;;48.33;23.37;;;2.10;99.90;;;;;;5094711;28;20469;-85
2021/12/11 00:53:41;;;;;;;56.00;24.43;;;2.10;99.90;;;;;;5093997;28;20398;-84
2021/12/11 00:56:20;;;;;;;52.50;22.97;;;2.10;99.90;;;;;;5091929;28;20475;-85
2021/12/11 00:58:50;;;;;;;44.47;20.57;;;2.10;99.90;;;;;;5093574;28;20409;-85
2021/12/11 01:01:23;;;;;;;48.33;22.97;;;2.10;99.90;;;;;;5092244;28;20418;-85
2021/12/11 01:03:54;;;;;;;48.13;21.73;;;2.10;99.90;;;;;;5094611;28;20420;-84
2021/12/11 01:06:22;;;;;;;39.73;20.10;;;2.10;99.90;;;;;;5092722;28;20445;-84
2021/12/11 01:08:56;;;;;;;52.03;23.70;;;2.10;99.90;;;;;;5093997;28;20403;-84
2021/12/11 01:11:31;;;;;;;46.37;22.90;;;2.00;99.90;;;;;;5092454;28;20925;-84
2021/12/11 01:14:18;;;;;;;48.73;20.97;;;2.10;99.90;;;;;;5091927;28;20437;-84
2021/12/11 01:17:03;;;;;;;51.33;24.73;;;2.10;99.90;;;;;;5092791;28;20422;-84
2021/12/11 01:19:36;;;;;;;38.43;18.77;;;2.10;99.90;;;;;;5093475;28;20436;-84
2021/12/11 01:22:19;;;;;;;49.17;22.77;;;2.00;99.90;;;;;;5092487;28;20407;-84
2021/12/11 01:24:46;;;;;;;46.83;21.00;;;2.00;99.90;;;;;;5091231;28;20415;-84
2021/12/11 01:27:16;;;;;;;58.90;22.80;;;2.00;99.90;;;;;;5092327;28;20422;-82
2021/12/11 01:29:44;;;;;;;43.70;22.17;;;2.00;99.90;;;;;;5093789;28;20822;-83
2021/12/11 01:32:11;;;;;;;47.90;21.60;;;2.00;99.90;;;;;;5092744;28;20478;-83
2021/12/11 01:34:37;;;;;;;54.60;22.43;;;2.00;99.90;;;;;;5091349;28;20437;-84
2021/12/11 01:37:03;;;;;;;47.90;22.87;;;2.00;99.90;;;;;;5093905;28;20494;-82
2021/12/11 01:39:34;;;;;;;54.10;22.87;;;2.10;99.90;;;;;;5093761;28;20822;-83
2021/12/11 01:42:05;;;;;;;46.93;22.60;;;2.00;99.90;;;;;;5093270;28;20434;-84
2021/12/11 01:44:36;;;;;;;55.67;23.17;;;2.00;99.90;;;;;;5094285;28;20802;-82
2021/12/11 01:47:19;;;;;;;44.50;23.20;;;2.10;99.90;;;;;;5094119;28;20767;-83
2021/12/11 01:49:49;;;;;;;50.70;21.83;;;2.00;99.90;;;;;;5093203;28;20558;-84
2021/12/11 01:52:26;;;;;;;55.87;24.10;;;2.00;99.90;;;;;;5094103;28;20462;-84
2021/12/11 01:54:51;;;;;;;51.83;23.53;;;2.10;99.90;;;;;;5092259;28;20432;-85
2021/12/11 01:57:23;;;;;;;41.10;22.80;;;2.10;99.90;;;;;;5075530;28;20423;-84
2021/12/11 01:59:56;;;;;;;47.03;21.87;;;2.10;99.90;;;;;;5073712;28;20178;-85
2021/12/11 02:02:35;;;;;;;47.70;22.60;;;2.10;99.90;;;;;;5088825;28;20450;-83
2021/12/11 02:05:02;;;;;;;46.63;21.90;;;2.10;99.90;;;;;;5093900;28;20415;-83
2021/12/11 02:07:38;;;;;;;54.97;24.77;;;2.10;99.90;;;;;;5093467;28;20775;-84
2021/12/11 02:10:14;;;;;;;47.67;23.20;;;2.10;99.90;;;;;;5088323;28;20477;-85
2021/12/11 02:12:43;;;;;;;44.63;21.53;;;2.10;99.90;;;;;;5073976;28;20460;-84
2021/12/11 02:15:15;;;;;;;46.00;22.20;;;2.10;99.90;;;;;;5073428;28;20505;-85
2021/12/11 02:17:52;;;;;;;41.50;22.40;;;2.10;99.90;;;;;;5073444;28;20422;-84
2021/12/11 02:20:28;;;;;;;52.33;24.17;;;2.10;99.90;;;;;;5072090;28;20511;-85
2021/12/11 02:22:54;;;;;;;47.50;21.30;;;2.10;99.90;;;;;;5077109;28;20434;-84
2021/12/11 02:25:25;;;;;;;45.87;22.30;;;2.10;99.90;;;;;;5072976;28;20432;-85
2021/12/11 02:27:59;;;;;;;50.70;24.30;;;2.10;99.90;;;;;;5072011;28;20411;-85
2021/12/11 02:30:42;;;;;;;45.93;24.67;;;2.10;99.90;;;;;;5073259;28;20467;-84
2021/12/11 02:33:24;;;;;;;53.17;22.93;;;2.10;99.90;;;;;;5074384;28;20412;-84
2021/12/11 02:36:01;;;;;;;51.00;23.37;;;2.10;99.90;;;;;;5093721;28;20406;-84
2021/12/11 02:38:37;;;;;;;45.17;21.73;;;2.00;99.90;;;;;;5092937;28;20457;-84
2021/12/11 02:41:12;;;;;;;50.80;22.20;;;2.10;99.90;;;;;;5092223;28;20410;-83
2021/12/11 02:44:01;;;;;;;54.73;22.90;;;2.10;99.90;;;;;;5093377;28;20421;-83
2021/12/11 02:46:41;;;;;;;49.53;22.90;;;2.00;99.90;;;;;;5093320;28;20938;-83
2021/12/11 02:49:13;;;;;;;55.37;24.43;;;2.10;99.90;;;;;;5093165;28;20453;-83
2021/12/11 02:51:54;;;;;;;46.90;22.97;;;2.10;99.90;;;;;;5093320;28;20422;-83
2021/12/11 02:54:45;;;;;;;47.77;21.37;;;2.00;99.90;;;;;;5085930;28;20423;-83
2021/12/11 02:57:24;;;;;;;37.40;20.30;;;2.00;99.90;;;;;;5082269;28;20508;-84
2021/12/11 02:59:50;;;;;;;46.50;21.40;;;2.00;99.90;;;;;;5087761;28;20435;-83
2021/12/11 03:02:25;;;;;;;47.87;21.70;;;1.90;99.90;;;;;;5091849;28;20419;-83
2021/12/11 03:04:55;;;;;;;56.27;24.00;;;2.00;99.90;;;;;;5093109;28;20169;-84
2021/12/11 03:07:26;;;;;;;47.20;19.77;;;1.90;99.90;;;;;;5092925;28;20921;-83
2021/12/11 03:09:55;;;;;;;42.60;19.17;;;2.00;99.90;;;;;;5093034;28;20464;-85
2021/12/11 03:12:22;;;;;;;44.73;22.83;;;2.00;99.90;;;;;;5092840;28;20415;-83
2021/12/11 03:14:48;;;;;;;47.77;21.47;;;2.00;99.90;;;;;;5092895;28;20414;-84
2021/12/11 03:17:18;;;;;;;45.17;22.50;;;2.00;99.90;;;;;;5091675;28;20474;-83
2021/12/11 03:19:45;;;;;;;47.87;22.57;;;2.00;99.90;;;;;;5092928;28;20398;-83
2021/12/11 03:22:20;;;;;;;47.10;22.37;;;1.90;99.90;;;;;;5092837;28;20423;-84
2021/12/11 03:24:47;;;;;;;51.07;24.10;;;2.00;99.90;;;;;;5092861;28;20898;-83
2021/12/11 03:27:12;;;;;;;45.97;22.23;;;2.00;99.90;;;;;;5092831;28;20505;-84
2021/12/11 03:29:39;;;;;;;55.60;21.10;;;2.00;99.90;;;;;;5091515;28;20554;-83
2021/12/11 03:32:08;;;;;;;41.43;19.10;;;2.00;99.90;;;;;;5092849;28;20160;-85
2021/12/11 03:34:34;;;;;;;49.50;21.60;;;2.00;99.90;;;;;;5092505;28;20933;-84
2021/12/11 03:37:03;;;;;;;39.73;21.70;;;1.90;99.90;;;;;;5095433;28;20458;-84
2021/12/11 03:39:33;;;;;;;48.60;23.40;;;1.90;99.90;;;;;;5096066;28;20462;-84
2021/12/11 03:42:03;;;;;;;51.73;21.80;;;1.90;99.90;;;;;;5095534;28;20460;-83
2021/12/11 03:44:33;;;;;;;55.20;22.73;;;1.90;99.90;;;;;;5095255;28;20910;-84
2021/12/11 03:47:06;;;;;;;48.30;23.33;;;1.90;99.90;;;;;;5096558;28;20814;-84
2021/12/11 03:49:32;;;;;;;49.13;22.70;;;1.90;99.90;;;;;;5095051;28;21195;-84
2021/12/11 03:51:57;;;;;;;39.90;23.37;;;1.90;99.90;;;;;;5096404;28;20440;-84
2021/12/11 03:54:27;;;;;;;49.00;23.00;;;1.90;99.90;;;;;;5088071;28;20268;-85
2021/12/11 03:56:53;;;;;;;46.13;22.57;;;1.90;99.90;;;;;;5093148;28;20261;-84
2021/12/11 03:59:19;;;;;;;54.70;22.80;;;1.90;99.90;;;;;;5096215;28;20403;-86
2021/12/11 04:01:52;;;;;;;59.37;22.40;;;1.90;99.90;;;;;;5094917;28;20446;-85
2021/12/11 04:04:29;;;;;;;47.83;22.03;;;1.90;99.90;;;;;;5096164;28;20498;-84
2021/12/11 04:06:59;;;;;;;41.03;21.57;;;1.90;99.90;;;;;;5096089;28;20398;-85
2021/12/11 04:09:25;;;;;;;50.50;21.50;;;1.90;99.90;;;;;;5094391;28;20818;-84
2021/12/11 04:11:53;;;;;;;48.30;23.67;;;1.90;99.90;;;;;;5096272;28;20507;-85
2021/12/11 04:14:22;;;;;;;49.47;22.70;;;2.00;99.90;;;;;;5095973;28;20443;-85
2021/12/11 04:16:49;;;;;;;43.20;21.43;;;1.80;99.90;;;;;;5094659;28;20423;-85
2021/12/11 04:19:15;;;;;;;46.20;23.00;;;1.80;99.90;;;;;;5095922;28;20429;-85
2021/12/11 04:21:43;;;;;;;42.93;22.07;;;1.90;99.90;;;;;;5075706;28;20418;-85
2021/12/11 04:24:11;;;;;;;43.90;20.90;;;1.80;99.90;;;;;;5075180;28;20513;-84
2021/12/11 04:26:37;;;;;;;48.13;22.47;;;1.80;99.90;;;;;;5074468;28;20419;-84
2021/12/11 04:29:05;;;;;;;54.73;25.30;;;1.70;99.90;;;;;;5075390;28;20858;-83
2021/12/11 04:31:32;;;;;;;54.57;24.30;;;1.70;99.90;;;;;;5075594;28;20412;-83
2021/12/11 04:34:03;;;;;;;53.17;23.87;;;1.60;99.90;;;;;;5074082;28;20934;-84
2021/12/11 04:36:40;;;;;;;44.37;20.50;;;1.70;99.90;;;;;;5075379;28;20493;-84
2021/12/11 04:39:09;;;;;;;55.30;23.00;;;1.60;99.90;;;;;;5074920;28;20462;-84
2021/12/11 04:41:48;;;;;;;44.17;22.30;;;1.60;99.90;;;;;;5073949;28;20561;-85
2021/12/11 04:44:24;;;;;;;43.40;18.23;;;1.60;99.90;;;;;;5075188;28;20490;-85
2021/12/11 04:46:50;;;;;;;52.40;23.63;;;1.70;99.90;;;;;;5074221;28;20433;-84
2021/12/11 04:49:27;;;;;;;55.80;21.33;;;1.60;99.90;;;;;;5074880;28;20454;-84
2021/12/11 04:52:05;;;;;;;49.37;22.97;;;1.50;99.90;;;;;;5075017;28;20407;-85
2021/12/11 04:54:53;;;;;;;48.97;22.33;;;1.60;99.90;;;;;;5081766;28;20531;-84
2021/12/11 05:00:12;;;;;;;51.20;23.87;;;1.70;99.90;;;;;;5095472;28;20417;-85
2021/12/11 05:11:06;;;;;;;48.70;21.90;;;1.80;99.90;;;;;;5074669;28;20470;-84
2021/12/11 05:13:33;;;;;;;48.60;19.07;;;1.80;99.90;;;;;;5074614;28;20783;-84
2021/12/11 05:16:03;;;;;;;43.07;19.07;;;1.80;99.90;;;;;;5074627;28;20468;-84
2021/12/11 05:18:33;;;;;;;55.93;22.20;;;1.80;99.90;;;;;;5090298;28;20796;-84
2021/12/11 05:21:03;;;;;;;46.63;18.80;;;1.90;99.90;;;;;;5074349;28;20480;-83
2021/12/11 05:23:30;;;;;;;40.30;21.07;;;1.80;99.90;;;;;;5073800;28;20894;-83
2021/12/11 05:25:56;;;;;;;46.17;20.80;;;1.90;99.90;;;;;;5074388;28;20408;-84
2021/12/11 05:28:21;;;;;;;41.23;19.33;;;1.90;99.90;;;;;;5074052;28;20476;-84
2021/12/11 05:30:50;;;;;;;50.33;19.20;;;1.80;99.90;;;;;;5077955;28;20214;-84
2021/12/11 05:33:18;;;;;;;40.37;19.00;;;1.90;99.90;;;;;;5093288;28;20693;-84
2021/12/11 05:35:45;;;;;;;42.67;18.03;;;1.90;99.90;;;;;;5094630;28;20911;-84
2021/12/11 05:38:12;;;;;;;38.27;20.90;;;1.70;99.90;;;;;;5093784;28;21026;-85
2021/12/11 05:40:44;;;;;;;39.47;20.50;;;1.70;99.90;;;;;;5093059;28;20419;-85
2021/12/11 05:43:11;;;;;;;38.43;19.00;;;1.80;99.90;;;;;;5094272;28;20917;-85
2021/12/11 05:45:38;;;;;;;37.33;18.60;;;1.80;99.90;;;;;;5094273;28;20411;-84
2021/12/11 05:48:04;;;;;;;39.27;19.97;;;1.90;99.90;;;;;;5094201;28;20490;-84
2021/12/11 05:50:34;;;;;;;40.80;18.77;;;1.80;99.90;;;;;;5093951;28;20485;-84
2021/12/11 05:53:00;;;;;;;40.77;19.80;;;1.80;99.90;;;;;;5093721;28;20402;-85
2021/12/11 05:55:29;;;;;;;38.60;17.77;;;1.80;99.90;;;;;;5084218;28;20464;-84
2021/12/11 05:57:57;;;;;;;48.10;20.67;;;1.80;99.90;;;;;;5093491;28;20413;-83
2021/12/11 06:00:28;;;;;;;42.83;19.80;;;1.80;99.90;;;;;;5092257;28;20418;-84
2021/12/11 06:02:55;;;;;;;38.57;18.13;;;1.70;99.90;;;;;;5081963;28;20738;-83
2021/12/11 06:05:21;;;;;;;36.97;18.70;;;1.50;99.90;;;;;;5093868;28;20502;-83
2021/12/11 06:07:46;;;;;;;44.27;21.43;;;1.20;99.90;;;;;;5093521;28;21018;-84
2021/12/11 06:10:16;;;;;;;39.97;18.80;;;1.10;99.90;;;;;;5093650;28;20509;-83
2021/12/11 06:12:45;;;;;;;38.13;17.67;;;0.90;99.90;;;;;;5093845;28;20218;-84
2021/12/11 06:15:11;;;;;;;37.77;18.90;;;0.90;99.90;;;;;;5093580;28;20426;-84
2021/12/11 06:17:37;;;;;;;42.77;18.90;;;0.80;99.90;;;;;;5093712;28;20409;-85
2021/12/11 06:20:09;;;;;;;42.93;17.67;;;0.80;99.90;;;;;;5093554;28;20168;-83
2021/12/11 06:22:36;;;;;;;35.07;17.67;;;0.80;99.90;;;;;;5091958;28;20875;-85
2021/12/11 06:25:10;;;;;;;33.00;16.93;;;0.90;99.90;;;;;;5093486;28;20797;-84
2021/12/11 06:27:37;;;;;;;42.37;18.20;;;0.90;99.90;;;;;;5093528;28;20410;-84
2021/12/11 06:30:04;;;;;;;35.83;18.50;;;;;;;;;;5093471;28;20469;-84
2021/12/11 06:32:30;;;;;;;39.60;19.90;;;0.60;99.90;;;;;;5093516;28;20467;-84
2021/12/11 06:34:58;;;;;;;39.23;18.30;;;0.60;99.90;;;;;;5093432;28;20770;-83
2021/12/11 06:37:24;;;;;;;39.70;18.90;;;0.60;99.90;;;;;;5091517;28;20654;-84
2021/12/11 06:39:51;;;;;;;39.33;18.33;;;0.40;99.90;;;;;;5093253;28;20514;-84
2021/12/11 06:42:19;;;;;;;35.70;16.90;;;0.50;99.90;;;;;;5077633;28;20585;-84
2021/12/11 06:44:45;;;;;;;34.33;17.50;;;0.50;99.90;;;;;;5073117;28;20443;-84
2021/12/11 06:47:13;;;;;;;31.17;15.47;;;0.50;99.90;;;;;;5072907;28;20472;-84
2021/12/11 06:49:39;;;;;;;38.43;18.27;;;0.40;99.90;;;;;;5072796;28;20467;-84
2021/12/11 06:52:13;;;;;;;33.60;16.20;;;0.30;99.90;;;;;;5071396;28;20422;-84
2021/12/11 06:54:39;;;;;;;31.57;16.83;;;0.00;99.90;;;;;;5082627;28;20919;-84
2021/12/11 06:57:06;;;;;;;28.57;14.63;;;0.20;99.90;;;;;;5088939;28;20748;-85
2021/12/11 06:59:32;;;;;;;36.30;17.43;;;0.20;99.90;;;;;;5091709;28;20414;-85
2021/12/11 07:01:57;;;;;;;42.40;18.27;;;0.10;99.90;;;;;;5093078;28;20952;-85
2021/12/11 07:04:23;;;;;;;42.37;19.07;;;0.00;99.90;;;;;;5092981;28;20406;-85
2021/12/11 07:06:51;;;;;;;35.10;17.17;;;-0.10;99.90;;;;;;5089466;28;20186;-84
2021/12/11 07:09:18;;;;;;;31.63;16.97;;;0.00;99.90;;;;;;5071540;28;20207;-85
2021/12/11 07:11:47;;;;;;;34.53;18.10;;;0.00;99.90;;;;;;5076574;28;20426;-85
2021/12/11 07:14:15;;;;;;;29.93;15.07;;;-0.10;99.90;;;;;;5076873;28;20453;-85
2021/12/11 07:16:40;;;;;;;36.10;16.00;;;-0.10;99.90;;;;;;5075684;28;20517;-84
2021/12/11 07:19:08;;;;;;;39.80;16.57;;;-0.10;99.90;;;;;;5075537;28;20457;-84
2021/12/11 07:21:34;;;;;;;38.50;17.00;;;0.00;99.90;;;;;;5075120;28;20455;-84
2021/12/11 07:24:00;;;;;;;38.93;17.77;;;-0.10;99.90;;;;;;5076735;28;20513;-84
2021/12/11 07:26:31;;;;;;;40.43;18.57;;;-0.20;99.90;;;;;;5086331;28;20437;-85
2021/12/11 07:29:01;;;;;;;44.70;18.90;;;-0.30;99.90;;;;;;5096819;28;20813;-85
2021/12/11 07:31:27;;;;;;;33.43;17.20;;;-0.20;99.90;;;;;;5096846;28;20406;-84
2021/12/11 07:33:53;;;;;;;34.57;17.80;;;-0.30;99.90;;;;;;5096766;28;20934;-84
2021/12/11 07:36:20;;;;;;;34.40;17.10;;;-0.40;99.90;;;;;;5096660;28;20416;-84
2021/12/11 07:38:46;;;;;;;35.73;17.63;;;-0.40;99.90;;;;;;5096089;28;20458;-84
2021/12/11 07:41:14;;;;;;;26.13;15.80;;;-0.30;99.90;;;;;;5095184;28;20913;-85
2021/12/11 07:43:41;;;;;;;29.10;16.17;;;-0.30;99.90;;;;;;5096579;28;20406;-83
2021/12/11 07:46:13;;;;;;;35.50;17.60;;;-0.50;99.90;;;;;;5095165;28;20990;-82
2021/12/11 07:48:38;;;;;;;27.80;15.67;;;-0.40;99.90;;;;;;5096696;28;20468;-84
2021/12/11 07:51:04;;;;;;;28.30;15.20;;;-0.40;99.90;;;;;;5096501;28;20565;-84
2021/12/11 07:53:30;;;;;;;30.77;13.93;;;-0.40;99.90;;;;;;5095773;28;20187;-83
2021/12/11 07:55:56;;;;;;;29.87;15.47;;;-0.30;99.90;;;;;;5084093;28;20430;-83
2021/12/11 07:58:22;;;;;;;28.40;14.00;;;-0.30;99.90;;;;;;5076056;28;20194;-83
2021/12/11 08:00:49;;;;;;;32.47;15.33;;;-0.20;99.90;;;;;;5095651;28;20231;-83
2021/12/11 08:03:16;;;;;;;25.73;16.20;;;-0.20;99.90;;;;;;5096312;28;20168;-82
2021/12/11 08:05:44;;;;;;;29.43;16.57;;;-0.20;99.90;;;;;;5096180;28;20425;-82
2021/12/11 08:08:11;;;;;;;36.07;19.53;;;0.10;99.90;;;;;;5094659;28;20417;-82
2021/12/11 08:10:41;;;;;;;31.80;19.43;;;0.20;99.90;;;;;;5096225;28;20913;-82
2021/12/11 08:13:07;;;;;;;36.90;17.90;;;0.30;99.90;;;;;;5096179;28;20907;-82
2021/12/11 08:15:34;;;;;;;32.37;13.50;;;;;;;;;;5095881;28;20402;-83
2021/12/11 08:18:00;;;;;;;39.23;17.47;;;0.60;99.90;;;;;;5095782;28;20863;-82
2021/12/11 08:20:30;;;;;;;31.67;17.17;;;0.90;99.90;;;;;;5095712;28;20415;-83
2021/12/11 08:22:58;;;;;;;34.13;15.27;;;1.00;99.90;;;;;;5094348;28;20172;-82
2021/12/11 08:25:26;;;;;;;23.80;15.87;;;1.30;99.90;;;;;;5095544;28;20911;-83
2021/12/11 08:27:52;;;;;;;32.30;15.77;;;1.50;99.90;;;;;;5094706;28;20428;-82
2021/12/11 08:30:18;;;;;;;30.23;17.20;;;1.60;99.90;;;;;;5095608;28;20474;-82
2021/12/11 08:32:44;;;;;;;29.60;17.03;;;1.80;99.90;;;;;;5095676;28;20460;-82
2021/12/11 08:35:12;;;;;;;33.20;16.33;;;1.90;99.90;;;;;;5095500;28;20417;-83
2021/12/11 08:37:41;;;;;;;30.10;17.47;;;2.00;99.90;;;;;;5095004;28;20858;-83
2021/12/11 08:40:10;;;;;;;33.80;16.33;;;2.00;99.90;;;;;;5095566;28;20433;-83
2021/12/11 08:42:36;;;;;;;25.13;15.00;;;1.90;99.90;;;;;;5095433;28;20417;-83
2021/12/11 08:45:06;;;;;;;28.30;15.00;;;1.90;99.90;;;;;;5095603;28;20415;-83
2021/12/11 08:47:35;;;;;;;28.67;14.83;;;1.80;99.90;;;;;;5094517;28;20408;-83
2021/12/11 08:50:03;;;;;;;31.60;15.20;;;1.80;99.90;;;;;;5093944;28;20510;-84
2021/12/11 08:52:32;;;;;;;32.47;15.47;;;1.80;99.90;;;;;;5094703;28;20427;-83
2021/12/11 08:54:58;;;;;;;32.10;17.67;;;1.80;99.90;;;;;;5095026;28;20446;-83
2021/12/11 08:57:29;;;;;;;36.73;18.30;;;1.80;99.90;;;;;;5095118;28;20543;-83
2021/12/11 09:00:00;;;;;;;34.13;15.80;;;1.90;99.90;;;;;;5095041;28;20953;-84
2021/12/11 09:02:40;;;;;;;29.13;16.23;;;1.90;99.90;;;;;;5094970;28;20909;-83
2021/12/11 09:05:22;;;;;;;28.80;14.30;;;2.00;99.90;;;;;;5094909;28;20415;-83
2021/12/11 09:07:54;;;;;;;28.00;14.50;;;2.00;99.90;;;;;;5094728;28;20935;-83
2021/12/11 09:10:25;;;;;;;29.67;15.50;;;2.10;99.90;;;;;;5094901;28;20474;-85
2021/12/11 09:12:58;;;;;;;28.27;16.67;;;2.10;99.90;;;;;;5093508;28;20418;-84
2021/12/11 09:15:31;;;;;;;33.70;15.50;;;2.10;99.90;;;;;;5093159;28;20820;-84
2021/12/11 09:18:18;;;;;;;29.70;14.70;;;2.10;99.90;;;;;;5094692;28;20467;-86
2021/12/11 09:20:58;;;;;;;26.77;14.87;;;2.10;99.90;;;;;;5094787;28;20410;-84
2021/12/11 09:23:50;;;;;;;24.80;13.57;;;2.10;99.90;;;;;;5094280;28;20445;-85
2021/12/11 09:26:27;;;;;;;25.37;14.30;;;2.20;99.90;;;;;;5092169;28;21008;-84
2021/12/11 09:28:55;;;;;;;30.03;14.37;;;2.10;99.90;;;;;;5094636;28;20967;-83
2021/12/11 09:31:33;;;;;;;29.70;16.30;;;2.10;99.90;;;;;;5094400;28;20467;-83
2021/12/11 09:34:17;;;;;;;27.60;14.60;;;2.20;99.90;;;;;;5094179;28;20475;-82
2021/12/11 09:36:47;;;;;;;28.10;15.87;;;2.20;99.90;;;;;;5094104;28;20431;-84
2021/12/11 09:39:24;;;;;;;36.57;17.53;;;2.20;99.90;;;;;;5093096;28;20569;-84
2021/12/11 09:41:49;;;;;;;25.23;14.00;;;2.20;99.90;;;;;;5094387;28;20407;-83
2021/12/11 09:44:21;;;;;;;28.90;15.60;;;2.30;99.90;;;;;;5094219;28;20463;-91
2021/12/11 09:47:02;;;;;;;30.33;14.23;;;2.30;99.90;;;;;;5093157;28;20204;-85
2021/12/11 09:49:33;;;;;;;35.17;14.93;;;2.40;99.90;;;;;;5094118;28;20468;-85
2021/12/11 09:52:15;;;;;;;21.27;13.17;;;2.50;99.90;;;;;;5093974;28;20430;-86
2021/12/11 09:54:41;;;;;;;27.10;14.57;;;2.60;99.90;;;;;;5092861;28;20411;-86
2021/12/11 09:57:11;;;;;;;26.57;15.87;;;2.70;99.90;;;;;;5092561;28;20434;-86
2021/12/11 09:59:38;;;;;;;31.17;13.93;;;2.80;99.90;;;;;;5093889;28;20894;-86
2021/12/11 10:02:13;;;;;;;26.80;14.90;;;2.90;99.90;;;;;;5092706;28;20500;-85
2021/12/11 10:04:58;;;;;;;27.70;16.10;;;3.00;99.90;;;;;;5093796;28;20443;-85
2021/12/11 10:07:29;;;;;;;25.50;13.10;;;3.10;99.90;;;;;;5092060;28;20794;-86
2021/12/11 10:10:00;;;;;;;24.80;13.80;;;3.30;99.90;;;;;;5093670;28;20492;-86
2021/12/11 10:12:34;;;;;;;28.40;16.77;;;3.30;99.90;;;;;;5093397;28;20418;-85
2021/12/11 10:15:06;;;;;;;33.33;14.37;;;3.30;99.90;;;;;;5091743;28;20433;-85
2021/12/11 10:17:37;;;;;;;25.50;13.43;;;3.40;99.90;;;;;;5093567;28;20418;-86
2021/12/11 10:20:16;;;;;;;23.27;12.90;;;3.40;99.90;;;;;;5092393;28;20438;-86
2021/12/11 10:22:42;;;;;;;20.57;12.97;;;3.40;99.90;;;;;;5093109;28;20989;-86
2021/12/11 10:25:15;;;;;;;25.50;14.67;;;3.40;99.90;;;;;;5093777;28;20422;-86
2021/12/11 10:27:42;;;;;;;26.77;14.00;;;3.50;99.90;;;;;;5092329;28;20415;-86
2021/12/11 10:30:11;;;;;;;23.67;12.43;;;3.60;99.90;;;;;;5093372;28;21030;-86
2021/12/11 10:32:36;;;;;;;23.20;13.10;;;3.70;99.90;;;;;;5092025;28;20426;-85
2021/12/11 10:35:10;;;;;;;27.53;14.07;;;3.90;99.90;;;;;;5093306;28;20424;-86
2021/12/11 10:37:38;;;;;;;25.90;14.30;;;4.00;99.90;;;;;;5096315;28;20281;-87
2021/12/11 10:40:16;;;;;;;25.27;14.90;;;4.00;99.90;;;;;;5095712;28;20432;-87
2021/12/11 10:42:44;;;;;;;24.47;13.20;;;4.70;99.90;;;;;;5100284;28;20417;-89
2021/12/11 10:45:13;;;;;;;27.13;14.17;;;4.60;99.90;;;;;;5095302;28;20903;-87
2021/12/11 10:47:43;;;;;;;23.13;13.00;;;4.20;99.90;;;;;;5093775;28;20560;-88
2021/12/11 10:50:19;;;;;;;21.33;13.57;;;4.10;99.90;;;;;;5092353;28;20466;-88
2021/12/11 10:52:46;;;;;;;21.10;12.37;;;4.10;99.90;;;;;;5089752;28;20941;-90
2021/12/11 10:55:17;;;;;;;22.43;12.20;;;4.10;99.90;;;;;;5094680;28;20414;-94
2021/12/11 10:57:43;;;;;;;18.80;12.43;;;4.20;99.90;;;;;;5095473;28;20934;-90
2021/12/11 11:00:16;;;;;;;26.20;13.13;;;4.20;99.90;;;;;;5095400;28;20425;-93
2021/12/11 11:02:42;;;;;;;20.10;12.90;;;4.20;99.90;;;;;;5092347;28;20415;-92
2021/12/11 11:05:13;;;;;;;19.43;11.73;;;4.20;99.90;;;;;;5092546;28;20432;-91
2021/12/11 11:07:39;;;;;;;22.60;11.63;;;4.20;99.90;;;;;;5093866;28;20214;-93
2021/12/11 11:10:10;;;;;;;22.03;13.70;;;4.10;99.90;;;;;;5093514;28;20503;-91
2021/12/11 11:12:35;;;;;;;19.03;11.50;;;4.20;99.90;;;;;;5093260;28;20480;-92
2021/12/11 11:15:01;;;;;;;22.17;13.00;;;4.20;99.90;;;;;;5094278;28;20428;-86
2021/12/11 11:17:30;;;;;;;23.93;12.23;;;4.20;99.90;;;;;;5094036;28;20222;-90
2021/12/11 11:19:57;;;;;;;21.40;12.20;;;4.20;99.90;;;;;;5093705;28;20418;-89
2021/12/11 11:22:26;;;;;;;15.90;12.27;;;4.20;99.90;;;;;;5092577;28;20437;-91
2021/12/11 11:24:58;;;;;;;21.07;11.10;;;4.20;99.90;;;;;;5093806;28;20415;-91
2021/12/11 11:27:24;;;;;;;17.20;9.53;;;4.20;99.90;;;;;;5093955;28;20415;-90
2021/12/11 11:29:50;;;;;;;17.17;10.53;;;4.20;99.90;;;;;;5093667;28;20458;-91
2021/12/11 11:32:31;;;;;;;17.73;10.33;;;4.10;99.90;;;;;;5093027;28;20469;-91
2021/12/11 11:35:02;;;;;;;22.70;11.47;;;4.10;99.90;;;;;;5092745;28;20169;-91
2021/12/11 11:37:29;;;;;;;18.37;10.53;;;4.00;99.90;;;;;;5093102;28;20771;-91
2021/12/11 11:39:54;;;;;;;21.43;12.30;;;4.10;99.90;;;;;;5092515;28;20513;-90
2021/12/11 11:42:21;;;;;;;19.63;11.40;;;4.00;99.90;;;;;;5093620;28;20452;-90
2021/12/11 11:44:50;;;;;;;20.53;11.50;;;4.10;99.90;;;;;;5093799;28;20194;-87
2021/12/11 11:47:18;;;;;;;19.67;10.57;;;4.30;99.90;;;;;;5093919;28;20416;-89
2021/12/11 11:49:44;;;;;;;21.23;12.43;;;4.40;99.90;;;;;;5093646;28;20980;-90
2021/12/11 11:52:15;;;;;;;16.10;10.60;;;4.40;99.90;;;;;;5092132;28;20517;-87
2021/12/11 11:54:44;;;;;;;12.70;8.30;;;4.50;99.90;;;;;;5093533;28;20413;-89
2021/12/11 11:57:14;;;;;;;14.53;9.50;;;4.40;99.90;;;;;;5096211;28;20404;-88
2021/12/11 11:59:39;;;;;;;21.97;11.33;;;4.50;99.90;;;;;;5095552;28;20418;-89
2021/12/11 12:02:18;;;;;;;14.07;8.50;;;4.40;99.90;;;;;;5097175;28;20459;-89
2021/12/11 12:04:46;;;;;;;16.73;10.37;;;4.50;99.90;;;;;;5097157;28;20812;-89
2021/12/11 12:07:12;;;;;;;17.10;11.17;;;4.60;99.90;;;;;;5094528;28;20435;-89
2021/12/11 12:09:48;;;;;;;15.40;9.40;;;4.60;99.90;;;;;;5097329;28;20611;-89
2021/12/11 12:12:15;;;;;;;20.47;9.80;;;4.70;99.90;;;;;;5089312;28;20785;-89
2021/12/11 12:14:43;;;;;;;18.60;11.00;;;4.80;99.90;;;;;;5094836;28;20439;-90
2021/12/11 12:17:13;;;;;;;17.30;10.37;;;4.80;99.90;;;;;;5096944;28;20752;-89
2021/12/11 12:19:39;;;;;;;14.57;9.87;;;4.70;99.90;;;;;;5096880;28;20428;-89
2021/12/11 12:22:08;;;;;;;16.30;9.23;;;4.70;99.90;;;;;;5096582;28;20417;-90
2021/12/11 12:24:37;;;;;;;18.80;10.43;;;4.70;99.90;;;;;;5096789;28;20429;-91
2021/12/11 12:27:08;;;;;;;14.30;9.43;;;4.80;99.90;;;;;;5096513;28;20406;-89
2021/12/11 12:29:35;;;;;;;18.03;10.70;;;4.80;99.90;;;;;;5095388;28;20873;-91
2021/12/11 12:32:07;;;;;;;13.47;9.40;;;4.90;99.90;;;;;;5096729;28;20423;-91
2021/12/11 12:34:33;;;;;;;12.57;9.50;;;5.00;99.90;;;;;;5096792;28;20409;-90
2021/12/11 12:37:00;;;;;;;12.20;8.40;;;5.00;99.90;;;;;;5094680;28;20517;-90
2021/12/11 12:39:38;;;;;;;15.40;8.77;;;4.90;99.90;;;;;;5088774;28;20219;-90
2021/12/11 12:42:18;;;;;;;14.00;6.60;;;4.90;99.90;;;;;;5097028;28;20470;-88
2021/12/11 12:44:50;;;;;;;11.37;7.00;;;5.00;99.90;;;;;;5094894;28;20413;-87
2021/12/11 12:47:26;;;;;;;8.97;7.50;;;4.90;99.90;;;;;;5095083;28;20418;-86
2021/12/11 12:49:58;;;;;;;12.33;6.57;;;4.80;99.90;;;;;;5095772;28;20454;-86
2021/12/11 12:52:34;;;;;;;12.57;7.30;;;4.80;99.90;;;;;;5095095;28;20502;-88
2021/12/11 12:55:04;;;;;;;11.37;7.30;;;4.80;99.90;;;;;;5095648;28;20512;-89
2021/12/11 12:57:35;;;;;;;10.80;7.80;;;4.80;99.90;;;;;;5094323;28;20528;-91
2021/12/11 13:00:06;;;;;;;12.97;7.07;;;4.80;99.90;;;;;;5095784;28;20438;-90
2021/12/11 13:02:35;;;;;;;13.70;7.07;;;4.90;99.90;;;;;;5094088;28;20419;-87
2021/12/11 13:05:18;;;;;;;10.60;6.03;;;4.90;99.90;;;;;;5079702;28;20427;-90